sensor_id;sensor_type;location;lat;lon;timestamp;pressure;altitude;pressure_sealevel;temperature;humidity
3150;BME280;32503;47.748;8.960;2023-05-29T00:00:41;96744.28;;;17.78;43.41
3150;BME280;32503;47.748;8.960;2023-05-29T00:03:08;96751.31;;;17.79;43.91
3150;BME280;32503;47.748;8.960;2023-05-29T00:05:35;96754.44;;;17.78;43.93
3150;BME280;32503;47.748;8.960;2023-05-29T00:08:02;96747.06;;;17.71;44.28
3150;BME280;32503;47.748;8.960;2023-05-29T00:10:30;96748.97;;;17.78;43.99
3150;BME280;32503;47.748;8.960;2023-05-29T00:12:59;96759.88;;;17.81;44.06
3150;BME280;32503;47.748;8.960;2023-05-29T00:15:27;96756.78;;;17.79;44.07
3150;BME280;32503;47.748;8.960;2023-05-29T00:17:56;96750.91;;;17.81;43.92
3150;BME280;32503;47.748;8.960;2023-05-29T00:20:23;96747.81;;;17.79;43.69
3150;BME280;32503;47.748;8.960;2023-05-29T00:22:50;96745.09;;;17.75;43.76
3150;BME280;32503;47.748;8.960;2023-05-29T00:25:17;96746.75;;;17.66;44.20
3150;BME280;32503;47.748;8.960;2023-05-29T00:27:44;96747.19;;;17.57;44.45
3150;BME280;32503;47.748;8.960;2023-05-29T00:30:13;96740.63;;;17.51;44.30
3150;BME280;32503;47.748;8.960;2023-05-29T00:32:40;96745.66;;;17.52;44.19
3150;BME280;32503;47.748;8.960;2023-05-29T00:35:08;96746.09;;;17.51;44.38
3150;BME280;32503;47.748;8.960;2023-05-29T00:37:36;96750.41;;;17.48;44.44
3150;BME280;32503;47.748;8.960;2023-05-29T00:40:04;96746.97;;;17.37;45.09
3150;BME280;32503;47.748;8.960;2023-05-29T00:42:32;96751.66;;;17.36;44.94
3150;BME280;32503;47.748;8.960;2023-05-29T00:44:59;96743.91;;;17.28;44.78
3150;BME280;32503;47.748;8.960;2023-05-29T00:47:27;96745.50;;;17.25;45.21
3150;BME280;32503;47.748;8.960;2023-05-29T00:49:55;96743.22;;;17.13;45.54
3150;BME280;32503;47.748;8.960;2023-05-29T00:52:24;96740.91;;;17.08;45.79
3150;BME280;32503;47.748;8.960;2023-05-29T00:54:52;96743.31;;;16.98;45.95
3150;BME280;32503;47.748;8.960;2023-05-29T00:57:19;96752.69;;;16.94;46.52
3150;BME280;32503;47.748;8.960;2023-05-29T00:59:47;96746.84;;;16.95;46.60
3150;BME280;32503;47.748;8.960;2023-05-29T01:02:15;96746.50;;;16.86;47.17
3150;BME280;32503;47.748;8.960;2023-05-29T01:04:45;96758.97;;;16.87;47.13
3150;BME280;32503;47.748;8.960;2023-05-29T01:07:13;96753.50;;;16.80;47.24
3150;BME280;32503;47.748;8.960;2023-05-29T01:09:41;96755.13;;;16.70;47.60
3150;BME280;32503;47.748;8.960;2023-05-29T01:12:19;96755.16;;;16.66;48.40
3150;BME280;32503;47.748;8.960;2023-05-29T01:15:18;96752.81;;;16.65;47.76
3150;BME280;32503;47.748;8.960;2023-05-29T01:18:04;96751.69;;;16.62;48.29
3150;BME280;32503;47.748;8.960;2023-05-29T01:20:40;96757.53;;;16.57;48.58
3150;BME280;32503;47.748;8.960;2023-05-29T01:23:29;96756.78;;;16.49;49.17
3150;BME280;32503;47.748;8.960;2023-05-29T01:26:16;96743.94;;;16.43;49.19
3150;BME280;32503;47.748;8.960;2023-05-29T01:28:52;96745.53;;;16.37;49.65
3150;BME280;32503;47.748;8.960;2023-05-29T01:31:25;96750.59;;;16.35;49.31
3150;BME280;32503;47.748;8.960;2023-05-29T01:33:53;96749.03;;;16.30;49.30
3150;BME280;32503;47.748;8.960;2023-05-29T01:36:20;96755.28;;;16.30;49.25
3150;BME280;32503;47.748;8.960;2023-05-29T01:38:48;96748.66;;;16.35;49.47
3150;BME280;32503;47.748;8.960;2023-05-29T01:41:17;96749.03;;;16.34;49.28
3150;BME280;32503;47.748;8.960;2023-05-29T01:43:45;96737.38;;;16.22;50.04
3150;BME280;32503;47.748;8.960;2023-05-29T01:46:14;96749.81;;;16.30;49.52
3150;BME280;32503;47.748;8.960;2023-05-29T01:48:42;96747.88;;;16.31;49.78
3150;BME280;32503;47.748;8.960;2023-05-29T01:51:11;96750.63;;;16.27;49.86
3150;BME280;32503;47.748;8.960;2023-05-29T01:53:38;96745.19;;;16.24;49.80
3150;BME280;32503;47.748;8.960;2023-05-29T01:56:06;96745.22;;;16.13;50.53
3150;BME280;32503;47.748;8.960;2023-05-29T01:58:34;96749.50;;;16.07;50.51
3150;BME280;32503;47.748;8.960;2023-05-29T02:01:02;96756.13;;;16.06;50.41
3150;BME280;32503;47.748;8.960;2023-05-29T02:03:32;96759.63;;;16.03;50.61
3150;BME280;32503;47.748;8.960;2023-05-29T02:06:00;96724.25;;;15.81;50.58
3150;BME280;32503;47.748;8.960;2023-05-29T02:08:27;96758.09;;;15.95;50.90
3150;BME280;32503;47.748;8.960;2023-05-29T02:10:54;96757.34;;;15.87;50.67
3150;BME280;32503;47.748;8.960;2023-05-29T02:13:21;96750.69;;;15.84;50.79
3150;BME280;32503;47.748;8.960;2023-05-29T02:15:48;96759.25;;;15.83;50.87
3150;BME280;32503;47.748;8.960;2023-05-29T02:18:16;96754.22;;;15.85;50.93
3150;BME280;32503;47.748;8.960;2023-05-29T02:20:46;96753.03;;;15.79;50.59
3150;BME280;32503;47.748;8.960;2023-05-29T02:23:13;96751.44;;;15.74;50.79
3150;BME280;32503;47.748;8.960;2023-05-29T02:25:41;96750.69;;;15.73;50.51
3150;BME280;32503;47.748;8.960;2023-05-29T02:28:08;96750.69;;;15.70;51.15
3150;BME280;32503;47.748;8.960;2023-05-29T02:30:35;96747.97;;;15.66;51.28
3150;BME280;32503;47.748;8.960;2023-05-29T02:33:02;96744.09;;;15.60;51.26
3150;BME280;32503;47.748;8.960;2023-05-29T02:35:30;96750.69;;;15.63;51.03
3150;BME280;32503;47.748;8.960;2023-05-29T02:37:58;96749.53;;;15.64;51.17
3150;BME280;32503;47.748;8.960;2023-05-29T02:40:25;96749.94;;;15.59;51.44
3150;BME280;32503;47.748;8.960;2023-05-29T02:42:52;96751.84;;;15.54;51.44
3150;BME280;32503;47.748;8.960;2023-05-29T02:45:19;96749.13;;;15.54;51.56
3150;BME280;32503;47.748;8.960;2023-05-29T02:47:46;96744.47;;;15.44;51.61
3150;BME280;32503;47.748;8.960;2023-05-29T02:50:13;96742.91;;;15.36;51.87
3150;BME280;32503;47.748;8.960;2023-05-29T02:52:41;96741.34;;;15.35;52.13
3150;BME280;32503;47.748;8.960;2023-05-29T02:55:09;96738.63;;;15.35;52.35
3150;BME280;32503;47.748;8.960;2023-05-29T02:57:37;96735.13;;;15.34;52.21
3150;BME280;32503;47.748;8.960;2023-05-29T03:00:05;96744.06;;;15.35;52.05
3150;BME280;32503;47.748;8.960;2023-05-29T03:02:33;96745.63;;;15.36;51.95
3150;BME280;32503;47.748;8.960;2023-05-29T03:05:01;96748.75;;;15.31;52.23
3150;BME280;32503;47.748;8.960;2023-05-29T03:07:28;96760.78;;;15.23;52.82
3150;BME280;32503;47.748;8.960;2023-05-29T03:09:55;96749.88;;;15.23;52.81
3150;BME280;32503;47.748;8.960;2023-05-29T03:12:24;96756.91;;;15.24;53.03
3150;BME280;32503;47.748;8.960;2023-05-29T03:14:51;96741.34;;;15.28;52.26
3150;BME280;32503;47.748;8.960;2023-05-29T03:17:19;96756.91;;;15.27;52.48
3150;BME280;32503;47.748;8.960;2023-05-29T03:19:46;96741.72;;;15.26;52.52
3150;BME280;32503;47.748;8.960;2023-05-29T03:22:13;96751.84;;;15.26;52.52
3150;BME280;32503;47.748;8.960;2023-05-29T03:24:40;96748.34;;;15.25;52.31
3150;BME280;32503;47.748;8.960;2023-05-29T03:27:07;96750.69;;;15.20;52.70
3150;BME280;32503;47.748;8.960;2023-05-29T03:29:36;96757.66;;;15.17;52.68
3150;BME280;32503;47.748;8.960;2023-05-29T03:32:03;96753.78;;;15.14;52.57
3150;BME280;32503;47.748;8.960;2023-05-29T03:34:30;96757.66;;;15.06;52.47
3150;BME280;32503;47.748;8.960;2023-05-29T03:36:57;96756.09;;;15.05;52.68
3150;BME280;32503;47.748;8.960;2023-05-29T03:39:24;96754.94;;;15.06;52.47
3150;BME280;32503;47.748;8.960;2023-05-29T03:41:51;96750.63;;;15.05;52.83
3150;BME280;32503;47.748;8.960;2023-05-29T03:44:18;96755.69;;;15.03;52.98
3150;BME280;32503;47.748;8.960;2023-05-29T03:46:47;96744.41;;;14.90;53.38
3150;BME280;32503;47.748;8.960;2023-05-29T03:49:14;96752.19;;;14.92;53.38
3150;BME280;32503;47.748;8.960;2023-05-29T03:51:41;96760.72;;;14.94;53.43
3150;BME280;32503;47.748;8.960;2023-05-29T03:54:08;96756.84;;;14.88;53.42
3150;BME280;32503;47.748;8.960;2023-05-29T03:56:35;96762.31;;;15.02;53.40
3150;BME280;32503;47.748;8.960;2023-05-29T03:59:02;96764.66;;;15.11;53.01
3150;BME280;32503;47.748;8.960;2023-05-29T04:01:29;96764.69;;;15.18;53.24
3150;BME280;32503;47.748;8.960;2023-05-29T04:03:58;96761.59;;;15.23;53.05
3150;BME280;32503;47.748;8.960;2023-05-29T04:06:25;96767.03;;;15.30;52.57
3150;BME280;32503;47.748;8.960;2023-05-29T04:08:52;96753.81;;;15.36;52.67
3150;BME280;32503;47.748;8.960;2023-05-29T04:11:19;96763.94;;;15.35;52.88
3150;BME280;32503;47.748;8.960;2023-05-29T04:13:48;96776.75;;;15.42;53.02
3150;BME280;32503;47.748;8.960;2023-05-29T04:16:15;96757.69;;;15.42;52.39
3150;BME280;32503;47.748;8.960;2023-05-29T04:18:42;96781.44;;;15.60;52.29
3150;BME280;32503;47.748;8.960;2023-05-29T04:21:10;96776.78;;;15.71;51.85
3150;BME280;32503;47.748;8.960;2023-05-29T04:23:38;96777.56;;;15.86;51.13
3150;BME280;32503;47.748;8.960;2023-05-29T04:26:05;96786.53;;;16.01;51.31
3150;BME280;32503;47.748;8.960;2023-05-29T04:28:32;96795.06;;;16.17;50.32
3150;BME280;32503;47.748;8.960;2023-05-29T04:30:59;96795.78;;;16.32;49.90
3150;BME280;32503;47.748;8.960;2023-05-29T04:33:26;96791.47;;;16.53;49.43
3150;BME280;32503;47.748;8.960;2023-05-29T04:35:54;96800.78;;;16.70;49.15
3150;BME280;32503;47.748;8.960;2023-05-29T04:38:22;96803.84;;;16.86;48.70
3150;BME280;32503;47.748;8.960;2023-05-29T04:40:51;96802.59;;;17.01;48.09
3150;BME280;32503;47.748;8.960;2023-05-29T04:43:18;96796.28;;;17.15;47.78
3150;BME280;32503;47.748;8.960;2023-05-29T04:45:46;96800.81;;;17.36;47.54
3150;BME280;32503;47.748;8.960;2023-05-29T04:48:14;96803.81;;;17.60;46.81
3150;BME280;32503;47.748;8.960;2023-05-29T04:50:42;96801.69;;;17.78;46.51
3150;BME280;32503;47.748;8.960;2023-05-29T04:53:10;96810.97;;;17.95;46.33
3150;BME280;32503;47.748;8.960;2023-05-29T04:55:38;96812.81;;;18.09;46.51
3150;BME280;32503;47.748;8.960;2023-05-29T04:58:05;96808.72;;;18.25;46.47
3150;BME280;32503;47.748;8.960;2023-05-29T05:00:33;96813.25;;;18.42;46.48
3150;BME280;32503;47.748;8.960;2023-05-29T05:03:00;96803.00;;;18.50;45.84
3150;BME280;32503;47.748;8.960;2023-05-29T05:05:28;96815.31;;;18.69;45.48
3150;BME280;32503;47.748;8.960;2023-05-29T05:07:55;96803.03;;;18.84;44.04
3150;BME280;32503;47.748;8.960;2023-05-29T05:10:22;96812.06;;;19.12;43.47
3150;BME280;32503;47.748;8.960;2023-05-29T05:12:50;96801.97;;;19.36;42.57
3150;BME280;32503;47.748;8.960;2023-05-29T05:15:17;96808.66;;;19.59;42.12
3150;BME280;32503;47.748;8.960;2023-05-29T05:17:44;96809.09;;;19.84;41.26
3150;BME280;32503;47.748;8.960;2023-05-29T05:20:12;96817.22;;;20.12;40.84
3150;BME280;32503;47.748;8.960;2023-05-29T05:22:39;96814.56;;;20.32;40.46
3150;BME280;32503;47.748;8.960;2023-05-29T05:25:07;96812.31;;;20.46;39.77
3150;BME280;32503;47.748;8.960;2023-05-29T05:27:34;96812.28;;;20.70;39.49
3150;BME280;32503;47.748;8.960;2023-05-29T05:30:04;96812.56;;;20.96;39.06
3150;BME280;32503;47.748;8.960;2023-05-29T05:32:31;96815.56;;;21.21;38.29
3150;BME280;32503;47.748;8.960;2023-05-29T05:34:58;96809.41;;;21.34;37.51
3150;BME280;32503;47.748;8.960;2023-05-29T05:37:26;96816.59;;;21.44;37.30
3150;BME280;32503;47.748;8.960;2023-05-29T05:39:53;96819.78;;;21.63;37.42
3150;BME280;32503;47.748;8.960;2023-05-29T05:42:20;96820.09;;;21.81;37.07
3150;BME280;32503;47.748;8.960;2023-05-29T05:44:47;96822.88;;;21.98;36.75
3150;BME280;32503;47.748;8.960;2023-05-29T05:47:15;96823.00;;;22.23;36.64
3150;BME280;32503;47.748;8.960;2023-05-29T05:49:42;96825.25;;;22.45;36.48
3150;BME280;32503;47.748;8.960;2023-05-29T05:52:10;96823.09;;;22.65;35.96
3150;BME280;32503;47.748;8.960;2023-05-29T05:54:37;96813.16;;;22.84;35.23
3150;BME280;32503;47.748;8.960;2023-05-29T05:57:04;96824.63;;;22.96;35.01
3150;BME280;32503;47.748;8.960;2023-05-29T05:59:33;96827.91;;;23.07;34.73
3150;BME280;32503;47.748;8.960;2023-05-29T06:02:00;96823.41;;;23.26;34.55
3150;BME280;32503;47.748;8.960;2023-05-29T06:04:28;96816.78;;;23.36;34.61
3150;BME280;32503;47.748;8.960;2023-05-29T06:06:55;96824.28;;;23.48;34.59
3150;BME280;32503;47.748;8.960;2023-05-29T06:09:22;96817.88;;;23.64;33.94
3150;BME280;32503;47.748;8.960;2023-05-29T06:11:50;96816.22;;;23.80;33.67
3150;BME280;32503;47.748;8.960;2023-05-29T06:14:17;96824.63;;;23.89;33.89
3150;BME280;32503;47.748;8.960;2023-05-29T06:16:44;96822.69;;;24.12;33.64
3150;BME280;32503;47.748;8.960;2023-05-29T06:19:12;96823.72;;;24.40;33.01
3150;BME280;32503;47.748;8.960;2023-05-29T06:21:41;96827.56;;;24.55;32.99
3150;BME280;32503;47.748;8.960;2023-05-29T06:24:08;96826.19;;;24.73;32.26
3150;BME280;32503;47.748;8.960;2023-05-29T06:26:36;96829.31;;;24.84;32.52
3150;BME280;32503;47.748;8.960;2023-05-29T06:29:04;96828.06;;;25.07;32.22
3150;BME280;32503;47.748;8.960;2023-05-29T06:31:32;96824.78;;;25.22;31.77
3150;BME280;32503;47.748;8.960;2023-05-29T06:33:59;96825.50;;;25.35;31.82
3150;BME280;32503;47.748;8.960;2023-05-29T06:36:26;96818.75;;;25.36;31.54
3150;BME280;32503;47.748;8.960;2023-05-29T06:38:55;96823.75;;;25.28;31.83
3150;BME280;32503;47.748;8.960;2023-05-29T06:41:22;96832.16;;;25.47;31.87
3150;BME280;32503;47.748;8.960;2023-05-29T06:43:49;96829.13;;;25.54;31.79
3150;BME280;32503;47.748;8.960;2023-05-29T06:46:17;96831.44;;;25.56;32.07
3150;BME280;32503;47.748;8.960;2023-05-29T06:48:44;96833.66;;;25.79;32.25
3150;BME280;32503;47.748;8.960;2023-05-29T06:51:15;96836.75;;;25.90;31.61
3150;BME280;32503;47.748;8.960;2023-05-29T06:53:42;96840.06;;;26.07;31.55
3150;BME280;32503;47.748;8.960;2023-05-29T06:56:11;96834.44;;;26.29;30.82
3150;BME280;32503;47.748;8.960;2023-05-29T06:58:38;96839.22;;;26.47;30.93
3150;BME280;32503;47.748;8.960;2023-05-29T07:01:05;96835.97;;;26.58;30.90
3150;BME280;32503;47.748;8.960;2023-05-29T07:03:32;96838.63;;;26.71;30.91
3150;BME280;32503;47.748;8.960;2023-05-29T07:06:00;96840.75;;;26.85;30.70
3150;BME280;32503;47.748;8.960;2023-05-29T07:08:27;96839.50;;;27.05;30.38
3150;BME280;32503;47.748;8.960;2023-05-29T07:10:54;96844.72;;;27.31;29.71
3150;BME280;32503;47.748;8.960;2023-05-29T07:13:25;96844.06;;;27.45;28.41
3150;BME280;32503;47.748;8.960;2023-05-29T07:15:52;96847.81;;;27.05;28.44
3150;BME280;32503;47.748;8.960;2023-05-29T07:18:19;96852.75;;;26.82;29.25
3150;BME280;32503;47.748;8.960;2023-05-29T07:20:46;96857.22;;;26.89;28.98
3150;BME280;32503;47.748;8.960;2023-05-29T07:23:13;96856.13;;;26.59;28.87
3150;BME280;32503;47.748;8.960;2023-05-29T07:25:40;96850.41;;;26.35;29.80
3150;BME280;32503;47.748;8.960;2023-05-29T07:28:07;96853.38;;;26.40;29.78
3150;BME280;32503;47.748;8.960;2023-05-29T07:30:36;96854.00;;;26.81;29.14
3150;BME280;32503;47.748;8.960;2023-05-29T07:33:03;96850.88;;;27.16;29.00
3150;BME280;32503;47.748;8.960;2023-05-29T07:35:30;96850.31;;;26.94;29.34
3150;BME280;32503;47.748;8.960;2023-05-29T07:37:58;96849.00;;;27.22;29.11
3150;BME280;32503;47.748;8.960;2023-05-29T07:40:25;96851.88;;;27.56;29.12
3150;BME280;32503;47.748;8.960;2023-05-29T07:42:53;96856.38;;;27.87;28.07
3150;BME280;32503;47.748;8.960;2023-05-29T07:45:20;96856.13;;;28.09;27.76
3150;BME280;32503;47.748;8.960;2023-05-29T07:47:48;96847.56;;;28.22;27.84
3150;BME280;32503;47.748;8.960;2023-05-29T07:50:15;96852.47;;;28.51;27.44
3150;BME280;32503;47.748;8.960;2023-05-29T07:52:42;96847.16;;;28.38;28.28
3150;BME280;32503;47.748;8.960;2023-05-29T07:55:09;96843.00;;;28.33;28.25
3150;BME280;32503;47.748;8.960;2023-05-29T07:57:36;96848.28;;;28.55;27.67
3150;BME280;32503;47.748;8.960;2023-05-29T08:00:06;96851.75;;;28.65;27.62
3150;BME280;32503;47.748;8.960;2023-05-29T08:02:34;96854.81;;;28.67;28.00
3150;BME280;32503;47.748;8.960;2023-05-29T08:05:03;96846.09;;;28.60;27.71
3150;BME280;32503;47.748;8.960;2023-05-29T08:07:31;96853.16;;;28.61;27.59
3150;BME280;32503;47.748;8.960;2023-05-29T08:09:58;96843.00;;;28.33;27.73
3150;BME280;32503;47.748;8.960;2023-05-29T08:12:25;96832.66;;;28.10;29.13
3150;BME280;32503;47.748;8.960;2023-05-29T08:14:52;96846.78;;;28.21;28.13
3150;BME280;32503;47.748;8.960;2023-05-29T08:17:19;96845.84;;;28.24;28.70
3150;BME280;32503;47.748;8.960;2023-05-29T08:19:46;96841.16;;;28.30;28.56
3150;BME280;32503;47.748;8.960;2023-05-29T08:22:15;96837.31;;;28.52;28.52
3150;BME280;32503;47.748;8.960;2023-05-29T08:24:42;96835.81;;;28.66;28.53
3150;BME280;32503;47.748;8.960;2023-05-29T08:27:09;96841.34;;;28.51;28.37
3150;BME280;32503;47.748;8.960;2023-05-29T08:29:36;96836.78;;;28.39;28.81
3150;BME280;32503;47.748;8.960;2023-05-29T08:32:04;96847.91;;;28.39;28.18
3150;BME280;32503;47.748;8.960;2023-05-29T08:34:32;96851.06;;;28.31;28.19
3150;BME280;32503;47.748;8.960;2023-05-29T08:36:59;96851.63;;;28.35;28.06
3150;BME280;32503;47.748;8.960;2023-05-29T08:39:27;96846.78;;;28.21;28.59
3150;BME280;32503;47.748;8.960;2023-05-29T08:41:59;96841.88;;;28.16;28.57
3150;BME280;32503;47.748;8.960;2023-05-29T08:44:30;96850.09;;;27.77;28.86
3150;BME280;32503;47.748;8.960;2023-05-29T08:47:02;96850.66;;;27.90;28.98
3150;BME280;32503;47.748;8.960;2023-05-29T08:49:40;96847.16;;;28.14;28.50
3150;BME280;32503;47.748;8.960;2023-05-29T08:52:16;96854.25;;;28.15;28.76
3150;BME280;32503;47.748;8.960;2023-05-29T08:54:45;96851.16;;;28.13;28.66
3150;BME280;32503;47.748;8.960;2023-05-29T08:57:12;96853.13;;;28.22;28.73
3150;BME280;32503;47.748;8.960;2023-05-29T08:59:42;96855.19;;;27.78;28.44
3150;BME280;32503;47.748;8.960;2023-05-29T09:02:11;96850.66;;;27.90;29.24
3150;BME280;32503;47.748;8.960;2023-05-29T09:04:41;96850.66;;;27.90;29.56
3150;BME280;32503;47.748;8.960;2023-05-29T09:07:11;96846.31;;;27.98;28.67
3150;BME280;32503;47.748;8.960;2023-05-29T09:09:38;96851.34;;;28.09;28.48
3150;BME280;32503;47.748;8.960;2023-05-29T09:12:07;96847.16;;;28.14;28.00
3150;BME280;32503;47.748;8.960;2023-05-29T09:14:36;96844.72;;;28.07;28.66
3150;BME280;32503;47.748;8.960;2023-05-29T09:17:04;96857.59;;;27.95;27.91
3150;BME280;32503;47.748;8.960;2023-05-29T09:19:32;96856.28;;;27.72;27.74
3150;BME280;32503;47.748;8.960;2023-05-29T09:22:04;96849.84;;;27.66;27.85
3150;BME280;32503;47.748;8.960;2023-05-29T09:24:33;96854.38;;;27.45;28.19
3150;BME280;32503;47.748;8.960;2023-05-29T09:27:00;96853.38;;;27.14;28.84
3150;BME280;32503;47.748;8.960;2023-05-29T09:29:32;96851.50;;;27.20;28.30
3150;BME280;32503;47.748;8.960;2023-05-29T09:31:59;96839.63;;;27.29;27.43
3150;BME280;32503;47.748;8.960;2023-05-29T09:34:31;96856.75;;;27.28;27.52
3150;BME280;32503;47.748;8.960;2023-05-29T09:37:02;96851.28;;;27.52;26.60
3150;BME280;32503;47.748;8.960;2023-05-29T09:39:41;96856.91;;;27.67;27.05
3150;BME280;32503;47.748;8.960;2023-05-29T09:42:10;96856.56;;;27.83;26.84
3150;BME280;32503;47.748;8.960;2023-05-29T09:44:40;96877.91;;;27.68;26.41
3150;BME280;32503;47.748;8.960;2023-05-29T09:47:07;96856.38;;;27.53;26.41
3150;BME280;32503;47.748;8.960;2023-05-29T09:49:34;96868.22;;;27.54;26.40
3150;BME280;32503;47.748;8.960;2023-05-29T09:52:04;96854.44;;;27.69;25.89
3150;BME280;32503;47.748;8.960;2023-05-29T09:54:35;96858.69;;;27.55;26.98
3150;BME280;32503;47.748;8.960;2023-05-29T09:57:04;96863.16;;;27.86;27.00
3150;BME280;32503;47.748;8.960;2023-05-29T09:59:33;96857.53;;;28.04;26.70
3150;BME280;32503;47.748;8.960;2023-05-29T10:02:04;96847.16;;;28.14;26.50
3150;BME280;32503;47.748;8.960;2023-05-29T10:04:33;96849.44;;;27.82;27.39
3150;BME280;32503;47.748;8.960;2023-05-29T10:07:08;96859.25;;;28.02;26.69
3150;BME280;32503;47.748;8.960;2023-05-29T10:09:41;96845.78;;;28.09;26.52
3150;BME280;32503;47.748;8.960;2023-05-29T10:12:11;96858.66;;;28.22;26.57
3150;BME280;32503;47.748;8.960;2023-05-29T10:14:39;96852.66;;;27.99;26.25
3150;BME280;32503;47.748;8.960;2023-05-29T10:17:09;96862.81;;;27.59;26.68
3150;BME280;32503;47.748;8.960;2023-05-29T10:19:39;96842.75;;;27.65;27.41
3150;BME280;32503;47.748;8.960;2023-05-29T10:22:07;96855.41;;;27.90;27.18
3150;BME280;32503;47.748;8.960;2023-05-29T10:24:37;96853.66;;;28.11;26.70
3150;BME280;32503;47.748;8.960;2023-05-29T10:27:04;96866.53;;;27.90;26.89
3150;BME280;32503;47.748;8.960;2023-05-29T10:29:36;96857.19;;;27.78;26.33
3150;BME280;32503;47.748;8.960;2023-05-29T10:32:20;96858.84;;;27.94;26.71
3150;BME280;32503;47.748;8.960;2023-05-29T10:34:56;96848.69;;;27.82;26.57
3150;BME280;32503;47.748;8.960;2023-05-29T10:37:35;96852.78;;;27.95;26.24
3150;BME280;32503;47.748;8.960;2023-05-29T10:40:05;96853.34;;;28.09;26.54
3150;BME280;32503;47.748;8.960;2023-05-29T10:42:50;96842.47;;;28.20;26.74
3150;BME280;32503;47.748;8.960;2023-05-29T10:45:49;96844.31;;;28.23;26.77
3150;BME280;32503;47.748;8.960;2023-05-29T10:48:43;96838.56;;;28.27;26.22
3150;BME280;32503;47.748;8.960;2023-05-29T10:51:28;96841.06;;;28.25;26.29
3150;BME280;32503;47.748;8.960;2023-05-29T10:53:57;96824.69;;;28.03;26.34
3150;BME280;32503;47.748;8.960;2023-05-29T10:56:29;96824.16;;;27.80;27.30
3150;BME280;32503;47.748;8.960;2023-05-29T10:58:59;96857.84;;;27.73;26.30
3150;BME280;32503;47.748;8.960;2023-05-29T11:01:28;96836.19;;;27.43;26.27
3150;BME280;32503;47.748;8.960;2023-05-29T11:04:27;96835.69;;;27.54;27.18
3150;BME280;32503;47.748;8.960;2023-05-29T11:06:57;96825.97;;;27.59;26.87
3150;BME280;32503;47.748;8.960;2023-05-29T11:09:30;96837.41;;;27.85;26.54
3150;BME280;32503;47.748;8.960;2023-05-29T11:12:14;96833.25;;;27.80;26.06
3150;BME280;32503;47.748;8.960;2023-05-29T11:14:56;96821.69;;;27.82;26.27
3150;BME280;32503;47.748;8.960;2023-05-29T11:17:44;96813.97;;;28.10;26.86
3150;BME280;32503;47.748;8.960;2023-05-29T11:20:33;96811.88;;;28.44;26.80
3150;BME280;32503;47.748;8.960;2023-05-29T11:23:04;96801.69;;;28.26;25.80
3150;BME280;32503;47.748;8.960;2023-05-29T11:25:36;96814.66;;;28.20;25.67
3150;BME280;32503;47.748;8.960;2023-05-29T11:28:04;96810.59;;;28.30;26.00
3150;BME280;32503;47.748;8.960;2023-05-29T11:30:45;96817.25;;;28.48;24.51
3150;BME280;32503;47.748;8.960;2023-05-29T11:33:23;96816.03;;;28.25;25.43
3150;BME280;32503;47.748;8.960;2023-05-29T11:35:56;96816.28;;;28.12;26.31
3150;BME280;32503;47.748;8.960;2023-05-29T11:38:24;96816.00;;;28.10;25.38
3150;BME280;32503;47.748;8.960;2023-05-29T11:40:52;96812.41;;;28.18;25.67
3150;BME280;32503;47.748;8.960;2023-05-29T11:43:19;96811.19;;;28.34;25.78
3150;BME280;32503;47.748;8.960;2023-05-29T11:45:47;96812.63;;;28.54;26.14
3150;BME280;32503;47.748;8.960;2023-05-29T11:48:14;96809.75;;;28.63;26.64
3150;BME280;32503;47.748;8.960;2023-05-29T11:50:41;96808.38;;;28.59;26.54
3150;BME280;32503;47.748;8.960;2023-05-29T11:53:11;96800.56;;;28.48;25.52
3150;BME280;32503;47.748;8.960;2023-05-29T11:55:38;96800.84;;;28.35;25.79
3150;BME280;32503;47.748;8.960;2023-05-29T11:58:06;96810.56;;;28.15;25.95
3150;BME280;32503;47.748;8.960;2023-05-29T12:00:35;96808.66;;;27.97;23.84
3150;BME280;32503;47.748;8.960;2023-05-29T12:03:03;96809.00;;;27.90;25.15
3150;BME280;32503;47.748;8.960;2023-05-29T12:05:31;96799.34;;;27.76;26.04
3150;BME280;32503;47.748;8.960;2023-05-29T12:07:59;96807.34;;;28.08;25.03
3150;BME280;32503;47.748;8.960;2023-05-29T12:10:31;96805.47;;;28.14;25.66
3150;BME280;32503;47.748;8.960;2023-05-29T12:12:59;96808.97;;;27.99;24.56
3150;BME280;32503;47.748;8.960;2023-05-29T12:15:27;96803.47;;;27.81;24.64
3150;BME280;32503;47.748;8.960;2023-05-29T12:17:55;96807.31;;;27.84;24.99
3150;BME280;32503;47.748;8.960;2023-05-29T12:20:24;96801.69;;;28.02;24.72
3150;BME280;32503;47.748;8.960;2023-05-29T12:22:53;96810.56;;;28.15;24.76
3150;BME280;32503;47.748;8.960;2023-05-29T12:25:26;96786.53;;;28.27;23.89
3150;BME280;32503;47.748;8.960;2023-05-29T12:27:56;96807.44;;;28.62;24.39
3150;BME280;32503;47.748;8.960;2023-05-29T12:30:24;96809.00;;;28.78;23.57
3150;BME280;32503;47.748;8.960;2023-05-29T12:32:52;96804.66;;;28.62;23.67
3150;BME280;32503;47.748;8.960;2023-05-29T12:35:21;96813.38;;;28.69;23.79
3150;BME280;32503;47.748;8.960;2023-05-29T12:37:54;96803.44;;;28.78;23.57
3150;BME280;32503;47.748;8.960;2023-05-29T12:40:23;96804.59;;;28.86;23.36
3150;BME280;32503;47.748;8.960;2023-05-29T12:42:56;96803.06;;;28.85;23.19
3150;BME280;32503;47.748;8.960;2023-05-29T12:45:26;96803.81;;;28.85;23.59
3150;BME280;32503;47.748;8.960;2023-05-29T12:47:56;96806.13;;;28.87;23.63
3150;BME280;32503;47.748;8.960;2023-05-29T12:50:25;96801.97;;;28.67;23.38
3150;BME280;32503;47.748;8.960;2023-05-29T12:52:58;96810.06;;;28.80;23.66
3150;BME280;32503;47.748;8.960;2023-05-29T12:55:26;96809.19;;;28.74;23.95
3150;BME280;32503;47.748;8.960;2023-05-29T12:57:55;96808.63;;;28.85;24.10
3150;BME280;32503;47.748;8.960;2023-05-29T13:00:23;96803.16;;;28.76;24.51
3150;BME280;32503;47.748;8.960;2023-05-29T13:02:50;96807.09;;;28.84;24.24
3150;BME280;32503;47.748;8.960;2023-05-29T13:05:18;96797.13;;;28.77;24.37
3150;BME280;32503;47.748;8.960;2023-05-29T13:07:49;96801.88;;;28.77;24.84
3150;BME280;32503;47.748;8.960;2023-05-29T13:10:16;96806.78;;;28.67;24.48
3150;BME280;32503;47.748;8.960;2023-05-29T13:12:43;96804.00;;;28.67;24.01
3150;BME280;32503;47.748;8.960;2023-05-29T13:15:13;96803.13;;;28.61;24.43
3150;BME280;32503;47.748;8.960;2023-05-29T13:17:41;96805.38;;;28.71;25.23
3150;BME280;32503;47.748;8.960;2023-05-29T13:20:10;96811.88;;;28.68;24.00